Time;durP1;ratioP1;P1;durP2;ratioP2;P2;SDS_P1;SDS_P2;PMS_P1;PMS_P2;Temp;Humidity;BMP_temperature;BMP_pressure;BME280_temperature;BME280_humidity;BME280_pressure;Samples;Min_cycle;Max_cycle;Signal;HPM_P1;HPM_P2
2023/05/26 00:01:46;;;;;;;2.72;1.42;;;;;;;;;;5034391;28;20073;-68
2023/05/26 00:04:16;;;;;;;3.72;1.38;;;;;;;;;;5037186;28;20421;-68
2023/05/26 00:06:46;;;;;;;3.63;2.33;;;;;;;;;;5036903;28;20095;-68
2023/05/26 00:09:14;;;;;;;2.15;1.27;;;;;;;;;;5034626;28;20082;-69
2023/05/26 00:11:43;;;;;;;4.28;1.40;;;;;;;;;;5037130;28;20171;-68
2023/05/26 00:14:14;;;;;;;1.58;0.80;;;;;;;;;;5035608;28;20103;-68
2023/05/26 00:16:43;;;;;;;2.42;1.15;;;;;;;;;;5033498;28;20056;-69
2023/05/26 00:19:12;;;;;;;2.67;1.63;;;;;;;;;;5033202;28;20049;-69
2023/05/26 00:21:41;;;;;;;1.42;0.93;;;;;;;;;;5036848;28;20045;-68
2023/05/26 00:24:10;;;;;;;5.45;1.48;;;;;;;;;;5034670;28;20110;-68
2023/05/26 00:26:38;;;;;;;2.65;1.30;;;;;;;;;;5034346;28;20051;-68
2023/05/26 00:29:06;;;;;;;1.88;1.00;;;;;;;;;;5037418;28;20041;-68
2023/05/26 00:31:56;;;;;;;2.28;1.30;;;;;;;;;;5033887;28;20155;-68
2023/05/26 00:34:24;;;;;;;2.65;1.23;;;;;;;;;;5036008;28;20052;-69
2023/05/26 00:36:53;;;;;;;2.38;1.42;;;;;;;;;;5035140;28;20658;-69
2023/05/26 00:39:21;;;;;;;4.47;1.83;;;;;;;;;;5036247;28;20096;-69
2023/05/26 00:41:50;;;;;;;2.47;1.40;;;;;;;;;;5037873;28;20104;-68
2023/05/26 00:44:19;;;;;;;1.80;1.20;;;;;;;;;;5036528;28;20052;-69
2023/05/26 00:46:47;;;;;;;4.30;1.88;;;;;;;;;;5038395;28;20451;-68
2023/05/26 00:49:17;;;;;;;4.30;1.58;;;;;;;;;;5035224;28;20056;-69
2023/05/26 00:51:46;;;;;;;5.20;2.05;;;;;;;;;;5035508;28;20049;-68
2023/05/26 00:54:15;;;;;;;4.13;2.15;;;;;;;;;;5035575;28;20132;-68
2023/05/26 00:56:44;;;;;;;4.88;1.77;;;;;;;;;;5033516;28;20084;-68
2023/05/26 00:59:13;;;;;;;3.80;1.90;;;;;;;;;;5037108;28;20123;-68
2023/05/26 01:04:23;;;;;;;15.90;1.80;;;;;;;;;;4972975;28;20090;-63
2023/05/26 01:06:52;;;;;;;3.20;1.25;;;;;;;;;;4974151;28;20097;-68
2023/05/26 01:09:20;;;;;;;3.33;1.52;;;;;;;;;;4975277;28;20043;-65
2023/05/26 01:11:51;;;;;;;1.98;1.10;;;;;;;;;;4975288;28;20099;-61
2023/05/26 01:14:24;;;;;;;3.55;1.63;;;;;;;;;;4974357;28;20082;-62
2023/05/26 01:16:55;;;;;;;4.15;1.33;;;;;;;;;;4974878;28;20109;-67
2023/05/26 01:19:40;;;;;;;3.20;1.48;;;;;;;;;;4974076;28;20481;-61
2023/05/26 01:22:14;;;;;;;6.88;1.55;;;;;;;;;;4974459;28;20082;-61
2023/05/26 01:24:52;;;;;;;2.20;1.42;;;;;;;;;;4974801;28;20051;-61
2023/05/26 01:27:25;;;;;;;1.83;1.30;;;;;;;;;;4973802;28;20086;-61
2023/05/26 01:29:55;;;;;;;3.97;1.60;;;;;;;;;;4974044;28;20070;-61
2023/05/26 01:32:23;;;;;;;3.67;1.30;;;;;;;;;;4979287;28;20392;-62
2023/05/26 01:34:52;;;;;;;2.90;1.35;;;;;;;;;;4991410;28;20558;-65
2023/05/26 01:37:20;;;;;;;4.10;1.70;;;;;;;;;;4981666;28;20058;-63
2023/05/26 01:39:48;;;;;;;4.63;2.03;;;;;;;;;;4984482;28;20145;-61
2023/05/26 01:42:20;;;;;;;3.83;1.27;;;;;;;;;;4980120;28;20070;-62
2023/05/26 01:45:04;;;;;;;4.85;1.63;;;;;;;;;;4985120;28;20046;-61
2023/05/26 01:47:33;;;;;;;2.33;1.40;;;;;;;;;;5002522;28;20467;-63
2023/05/26 01:50:04;;;;;;;3.80;1.73;;;;;;;;;;5001595;28;20052;-64
2023/05/26 01:52:33;;;;;;;4.38;2.30;;;;;;;;;;5001963;28;20073;-62
2023/05/26 01:55:02;;;;;;;2.67;1.58;;;;;;;;;;5007742;28;20074;-65
2023/05/26 01:57:32;;;;;;;3.65;1.60;;;;;;;;;;5004090;28;20058;-67
2023/05/26 02:00:03;;;;;;;5.28;2.83;;;;;;;;;;5002035;28;20050;-63
2023/05/26 02:02:31;;;;;;;4.32;1.27;;;;;;;;;;4999948;28;20473;-61
2023/05/26 02:05:00;;;;;;;2.28;1.30;;;;;;;;;;4997371;28;20041;-68
2023/05/26 02:07:35;;;;;;;4.00;1.58;;;;;;;;;;4986324;28;20136;-64
2023/05/26 02:10:04;;;;;;;3.58;1.60;;;;;;;;;;4986969;28;20093;-64
2023/05/26 02:12:32;;;;;;;4.95;1.40;;;;;;;;;;4985355;28;20104;-68
2023/05/26 02:15:02;;;;;;;1.70;0.98;;;;;;;;;;4985496;28;20503;-61
2023/05/26 02:17:30;;;;;;;2.63;1.13;;;;;;;;;;4979253;28;20086;-62
2023/05/26 02:19:59;;;;;;;2.03;1.25;;;;;;;;;;4981350;28;20054;-61
2023/05/26 02:22:27;;;;;;;3.78;1.73;;;;;;;;;;4985086;28;20144;-61
2023/05/26 02:24:57;;;;;;;1.85;1.27;;;;;;;;;;4981143;28;20568;-62
2023/05/26 02:27:25;;;;;;;1.80;1.10;;;;;;;;;;4984076;28;20589;-63
2023/05/26 02:29:54;;;;;;;2.33;1.27;;;;;;;;;;4980168;28;20158;-62
2023/05/26 02:32:25;;;;;;;3.00;1.30;;;;;;;;;;4985667;28;20050;-61
2023/05/26 02:34:53;;;;;;;3.15;1.25;;;;;;;;;;4984500;28;20085;-62
2023/05/26 02:37:22;;;;;;;4.68;1.65;;;;;;;;;;5000406;28;20136;-61
2023/05/26 02:39:50;;;;;;;2.00;0.90;;;;;;;;;;5000120;28;20046;-60
2023/05/26 02:42:19;;;;;;;2.92;1.60;;;;;;;;;;5002494;28;20072;-61
2023/05/26 02:44:47;;;;;;;2.65;1.60;;;;;;;;;;5001278;28;20073;-66
2023/05/26 02:47:15;;;;;;;2.42;1.25;;;;;;;;;;4984912;28;20089;-67
2023/05/26 02:49:46;;;;;;;4.00;2.03;;;;;;;;;;4980887;28;20057;-60
2023/05/26 02:52:15;;;;;;;4.10;2.00;;;;;;;;;;4980010;28;20046;-61
2023/05/26 02:54:43;;;;;;;2.67;1.45;;;;;;;;;;4983554;28;20100;-64
2023/05/26 02:57:11;;;;;;;1.65;1.15;;;;;;;;;;4981405;28;20092;-61
2023/05/26 02:59:40;;;;;;;2.13;1.05;;;;;;;;;;4986914;28;20070;-60
2023/05/26 03:02:08;;;;;;;2.97;1.30;;;;;;;;;;4986877;28;20085;-61
2023/05/26 03:04:37;;;;;;;3.65;1.40;;;;;;;;;;4987154;28;20047;-64
2023/05/26 03:07:08;;;;;;;3.17;1.50;;;;;;;;;;4986174;28;20554;-63
2023/05/26 03:09:37;;;;;;;3.80;1.10;;;;;;;;;;4986199;28;20069;-63
2023/05/26 03:12:06;;;;;;;2.63;1.58;;;;;;;;;;4990062;28;20053;-61
2023/05/26 03:14:35;;;;;;;3.13;1.08;;;;;;;;;;4985882;28;20062;-63
2023/05/26 03:17:03;;;;;;;2.70;1.27;;;;;;;;;;4984039;28;20082;-63
2023/05/26 03:19:32;;;;;;;4.78;1.45;;;;;;;;;;4983755;28;20508;-61
2023/05/26 03:22:01;;;;;;;6.32;1.45;;;;;;;;;;4984771;28;20069;-68
2023/05/26 03:24:51;;;;;;;1.80;1.10;;;;;;;;;;4983929;28;20058;-60
2023/05/26 03:27:22;;;;;;;4.18;1.00;;;;;;;;;;5008038;28;20088;-67
2023/05/26 03:29:50;;;;;;;3.45;1.27;;;;;;;;;;5006790;28;20125;-60
2023/05/26 03:32:19;;;;;;;2.78;1.20;;;;;;;;;;5007029;28;20077;-62
2023/05/26 03:34:47;;;;;;;2.47;1.48;;;;;;;;;;5004475;28;20050;-61
2023/05/26 03:37:15;;;;;;;2.15;1.20;;;;;;;;;;5010805;28;20131;-62
2023/05/26 03:39:44;;;;;;;3.45;1.08;;;;;;;;;;5006102;28;20045;-63
2023/05/26 03:42:13;;;;;;;10.45;1.80;;;;;;;;;;5006270;28;20053;-65
2023/05/26 03:44:42;;;;;;;3.10;1.60;;;;;;;;;;5006219;28;20132;-61
2023/05/26 03:47:10;;;;;;;4.13;1.70;;;;;;;;;;5008128;28;20073;-62
2023/05/26 03:49:38;;;;;;;3.10;1.20;;;;;;;;;;5003252;28;20334;-61
2023/05/26 03:52:07;;;;;;;1.90;1.35;;;;;;;;;;5006289;28;20238;-63
2023/05/26 03:54:35;;;;;;;3.45;1.30;;;;;;;;;;4998820;28;20107;-63
2023/05/26 03:57:04;;;;;;;3.20;2.03;;;;;;;;;;4983016;28;20050;-64
2023/05/26 03:59:34;;;;;;;3.88;1.60;;;;;;;;;;4983063;28;20356;-61
2023/05/26 04:02:02;;;;;;;3.65;1.60;;;;;;;;;;4979661;28;20180;-62
2023/05/26 04:04:31;;;;;;;2.13;1.20;;;;;;;;;;4979838;28;20050;-66
2023/05/26 04:06:59;;;;;;;2.90;1.25;;;;;;;;;;4984603;28;21034;-63
2023/05/26 04:09:28;;;;;;;5.43;1.35;;;;;;;;;;4986171;28;20471;-63
2023/05/26 04:11:56;;;;;;;3.97;1.30;;;;;;;;;;4980292;28;20519;-62
2023/05/26 04:14:25;;;;;;;3.17;1.92;;;;;;;;;;4984632;28;20049;-65
2023/05/26 04:16:54;;;;;;;4.70;2.05;;;;;;;;;;4999529;28;20104;-65
2023/05/26 04:19:23;;;;;;;6.25;1.92;;;;;;;;;;5002147;28;20046;-61
2023/05/26 04:21:51;;;;;;;3.70;1.10;;;;;;;;;;5001433;28;20576;-64
2023/05/26 04:24:20;;;;;;;10.23;2.08;;;;;;;;;;5000485;28;20502;-62
2023/05/26 04:26:48;;;;;;;6.05;1.27;;;;;;;;;;5002705;28;20521;-64
2023/05/26 04:29:16;;;;;;;1.83;1.23;;;;;;;;;;5002465;28;20148;-63
2023/05/26 04:31:45;;;;;;;5.07;1.20;;;;;;;;;;4999318;28;20395;-62
2023/05/26 04:34:16;;;;;;;4.03;1.67;;;;;;;;;;5001739;28;21898;-62
2023/05/26 04:36:44;;;;;;;3.10;1.02;;;;;;;;;;5002073;28;20046;-64
2023/05/26 04:39:13;;;;;;;4.07;1.48;;;;;;;;;;5003131;28;20123;-63
2023/05/26 04:41:43;;;;;;;5.40;1.33;;;;;;;;;;5003454;28;20050;-63
2023/05/26 04:44:12;;;;;;;5.03;2.08;;;;;;;;;;4998426;28;20076;-64
2023/05/26 04:46:40;;;;;;;2.10;1.08;;;;;;;;;;5002738;28;20569;-61
2023/05/26 04:49:09;;;;;;;3.40;1.10;;;;;;;;;;5000429;28;20188;-61
2023/05/26 04:51:39;;;;;;;14.30;1.92;;;;;;;;;;4996084;28;20128;-62
2023/05/26 04:54:08;;;;;;;2.00;1.02;;;;;;;;;;5003198;28;20049;-63
2023/05/26 04:56:36;;;;;;;2.17;1.08;;;;;;;;;;5000007;28;20046;-63
2023/05/26 04:59:04;;;;;;;7.20;1.60;;;;;;;;;;5005623;28;20132;-63
2023/05/26 05:01:33;;;;;;;2.60;1.02;;;;;;;;;;5005601;28;20499;-67
2023/05/26 05:04:01;;;;;;;4.75;1.60;;;;;;;;;;5007076;28;20052;-64
2023/05/26 05:06:30;;;;;;;2.45;1.38;;;;;;;;;;5002628;28;20486;-63
2023/05/26 05:09:01;;;;;;;4.95;1.85;;;;;;;;;;5002986;28;20985;-62
2023/05/26 05:11:29;;;;;;;3.28;1.48;;;;;;;;;;5004129;28;20119;-63
2023/05/26 05:13:57;;;;;;;3.88;1.42;;;;;;;;;;5004018;28;20555;-65
2023/05/26 05:16:26;;;;;;;4.53;1.20;;;;;;;;;;5001018;28;20427;-63
2023/05/26 05:18:54;;;;;;;2.10;1.15;;;;;;;;;;5003070;28;20050;-65
2023/05/26 05:21:23;;;;;;;2.65;1.10;;;;;;;;;;5003154;28;20046;-64
2023/05/26 05:23:51;;;;;;;3.55;1.25;;;;;;;;;;5000825;28;20096;-63
2023/05/26 05:26:22;;;;;;;3.97;1.60;;;;;;;;;;5001747;28;20069;-63
2023/05/26 05:28:50;;;;;;;2.78;1.05;;;;;;;;;;5003374;28;20413;-64
2023/05/26 05:31:19;;;;;;;2.28;1.20;;;;;;;;;;5006031;28;20061;-63
2023/05/26 05:33:47;;;;;;;2.40;1.67;;;;;;;;;;4997770;28;20078;-63
2023/05/26 05:36:15;;;;;;;3.65;1.63;;;;;;;;;;4992387;28;20096;-66
2023/05/26 05:38:44;;;;;;;2.90;1.27;;;;;;;;;;4983206;28;20457;-64
2023/05/26 05:41:14;;;;;;;3.28;1.65;;;;;;;;;;4984791;28;20450;-64
2023/05/26 05:43:43;;;;;;;2.63;1.30;;;;;;;;;;4985173;28;20054;-64
2023/05/26 05:46:12;;;;;;;4.18;1.20;;;;;;;;;;4997433;28;20054;-62
2023/05/26 05:48:42;;;;;;;2.58;1.30;;;;;;;;;;5001084;28;20479;-61
2023/05/26 05:51:10;;;;;;;3.28;1.20;;;;;;;;;;5002849;28;20180;-62
2023/05/26 05:53:39;;;;;;;2.83;1.42;;;;;;;;;;5004924;28;20057;-62
2023/05/26 05:56:07;;;;;;;5.18;1.98;;;;;;;;;;4990095;28;20046;-63
2023/05/26 05:58:36;;;;;;;5.60;1.90;;;;;;;;;;4979187;28;20468;-65
2023/05/26 06:01:06;;;;;;;4.22;1.73;;;;;;;;;;4981501;28;20105;-64
2023/05/26 06:03:34;;;;;;;8.32;1.70;;;;;;;;;;4975345;28;20066;-67
2023/05/26 06:06:03;;;;;;;2.97;1.33;;;;;;;;;;4981648;28;20047;-63
2023/05/26 06:08:31;;;;;;;5.85;1.33;;;;;;;;;;4980626;28;20066;-64
2023/05/26 06:10:59;;;;;;;3.50;1.48;;;;;;;;;;4983372;28;20074;-64
2023/05/26 06:13:28;;;;;;;3.22;1.83;;;;;;;;;;4978490;28;20062;-64
2023/05/26 06:15:56;;;;;;;4.97;1.77;;;;;;;;;;4978616;28;20086;-65
2023/05/26 06:18:26;;;;;;;2.13;1.02;;;;;;;;;;4980789;28;20058;-63
2023/05/26 06:20:54;;;;;;;3.88;1.83;;;;;;;;;;4980722;28;20085;-62
2023/05/26 06:23:23;;;;;;;6.82;1.88;;;;;;;;;;4980052;28;20459;-63
2023/05/26 06:25:52;;;;;;;6.97;2.13;;;;;;;;;;4985326;28;20074;-61
2023/05/26 06:28:21;;;;;;;5.18;1.83;;;;;;;;;;4982725;28;20106;-62
2023/05/26 06:30:49;;;;;;;4.50;1.85;;;;;;;;;;4979416;28;20043;-62
2023/05/26 06:33:17;;;;;;;2.65;1.55;;;;;;;;;;4982101;28;20050;-64
2023/05/26 06:35:47;;;;;;;5.07;1.83;;;;;;;;;;4983457;28;20053;-62
2023/05/26 06:38:16;;;;;;;3.28;1.75;;;;;;;;;;4985029;28;20710;-62
2023/05/26 06:40:44;;;;;;;9.15;2.22;;;;;;;;;;4982697;28;20478;-62
2023/05/26 06:43:13;;;;;;;5.38;2.05;;;;;;;;;;4987675;28;20398;-62
2023/05/26 06:45:41;;;;;;;2.67;1.42;;;;;;;;;;4985060;28;20879;-62
2023/05/26 06:48:10;;;;;;;8.15;2.25;;;;;;;;;;4985297;28;20050;-66
2023/05/26 06:50:38;;;;;;;4.05;2.10;;;;;;;;;;4982468;28;20050;-62
2023/05/26 06:53:08;;;;;;;5.53;1.98;;;;;;;;;;4986910;28;20046;-63
2023/05/26 06:55:36;;;;;;;3.70;2.08;;;;;;;;;;4984887;28;20054;-62
2023/05/26 06:58:05;;;;;;;5.00;2.60;;;;;;;;;;4983453;28;20077;-63
2023/05/26 07:00:33;;;;;;;6.40;2.10;;;;;;;;;;4986361;28;20639;-63
2023/05/26 07:03:02;;;;;;;11.85;2.05;;;;;;;;;;4979674;28;20078;-64
2023/05/26 07:05:30;;;;;;;4.82;2.75;;;;;;;;;;4984834;28;20113;-62
2023/05/26 07:07:58;;;;;;;6.97;3.03;;;;;;;;;;4985454;28;20132;-62
2023/05/26 07:10:28;;;;;;;9.40;2.63;;;;;;;;;;4985572;28;20403;-63
2023/05/26 07:12:57;;;;;;;6.78;2.67;;;;;;;;;;4983676;28;20380;-63
2023/05/26 07:15:25;;;;;;;13.00;3.25;;;;;;;;;;4979715;28;20066;-63
2023/05/26 07:17:54;;;;;;;4.47;2.22;;;;;;;;;;4981984;28;20042;-62
2023/05/26 07:20:22;;;;;;;4.63;2.13;;;;;;;;;;4984310;28;20494;-63
2023/05/26 07:22:51;;;;;;;6.05;2.10;;;;;;;;;;4985038;28;20081;-64
2023/05/26 07:25:19;;;;;;;9.25;3.45;;;;;;;;;;4982522;28;20061;-64
2023/05/26 07:27:49;;;;;;;5.47;2.33;;;;;;;;;;4986563;28;20092;-64
2023/05/26 07:30:17;;;;;;;5.28;2.28;;;;;;;;;;4983758;28;20130;-63
2023/05/26 07:32:46;;;;;;;4.80;1.95;;;;;;;;;;4985491;28;20090;-62
2023/05/26 07:35:14;;;;;;;3.65;1.70;;;;;;;;;;4986661;28;20095;-64
2023/05/26 07:37:43;;;;;;;5.30;2.10;;;;;;;;;;5006209;28;20058;-68
2023/05/26 07:40:12;;;;;;;9.55;1.90;;;;;;;;;;5010040;28;20081;-68
2023/05/26 07:42:40;;;;;;;6.80;2.50;;;;;;;;;;5008213;28;20049;-62
2023/05/26 07:45:11;;;;;;;8.90;2.97;;;;;;;;;;5001014;28;20097;-62
2023/05/26 07:47:40;;;;;;;5.65;2.70;;;;;;;;;;4984830;28;20105;-66
2023/05/26 07:50:09;;;;;;;3.15;1.50;;;;;;;;;;4981613;28;20054;-68
2023/05/26 07:52:38;;;;;;;4.47;2.20;;;;;;;;;;4984749;28;20052;-68
2023/05/26 07:55:06;;;;;;;6.97;2.03;;;;;;;;;;4983011;28;20066;-64
2023/05/26 07:57:34;;;;;;;5.45;2.85;;;;;;;;;;4984569;28;20120;-66
2023/05/26 08:00:04;;;;;;;6.38;2.72;;;;;;;;;;4986039;28;20129;-64
2023/05/26 08:02:35;;;;;;;3.63;1.52;;;;;;;;;;4985563;28;20510;-62
2023/05/26 08:05:03;;;;;;;6.47;2.92;;;;;;;;;;4989235;28;20046;-65
2023/05/26 08:07:32;;;;;;;5.97;2.72;;;;;;;;;;5007150;28;20042;-65
2023/05/26 08:10:00;;;;;;;4.68;2.58;;;;;;;;;;5006242;28;20042;-65
2023/05/26 08:12:29;;;;;;;5.35;2.05;;;;;;;;;;5007930;28;20101;-65
2023/05/26 08:14:57;;;;;;;6.03;2.13;;;;;;;;;;4998924;28;20058;-64
2023/05/26 08:17:26;;;;;;;6.28;2.40;;;;;;;;;;4984742;28;20050;-65
2023/05/26 08:19:56;;;;;;;7.80;1.92;;;;;;;;;;4980662;28;21006;-63
2023/05/26 08:22:24;;;;;;;6.80;2.20;;;;;;;;;;4981350;28;20585;-64
2023/05/26 08:24:53;;;;;;;4.82;1.95;;;;;;;;;;4978259;28;20065;-63
2023/05/26 08:27:21;;;;;;;7.43;1.85;;;;;;;;;;4982572;28;20050;-65
2023/05/26 08:29:49;;;;;;;4.63;1.88;;;;;;;;;;4980039;28;20657;-62
2023/05/26 08:32:18;;;;;;;9.13;3.58;;;;;;;;;;4981823;28;20144;-63
2023/05/26 08:34:46;;;;;;;6.63;3.28;;;;;;;;;;4982544;28;20050;-64
2023/05/26 08:37:17;;;;;;;6.32;3.15;;;;;;;;;;4983297;28;20046;-69
2023/05/26 08:39:45;;;;;;;4.85;2.20;;;;;;;;;;4982348;28;20089;-63
2023/05/26 08:42:14;;;;;;;7.70;2.60;;;;;;;;;;4981132;28;20453;-63
2023/05/26 08:44:44;;;;;;;9.23;2.63;;;;;;;;;;4978436;28;20471;-62
2023/05/26 08:47:13;;;;;;;4.15;1.88;;;;;;;;;;4981104;28;20114;-68
2023/05/26 08:49:47;;;;;;;6.05;2.55;;;;;;;;;;4981468;28;20050;-62
2023/05/26 08:52:18;;;;;;;4.50;2.25;;;;;;;;;;4982428;28;20133;-68
2023/05/26 08:54:46;;;;;;;7.13;3.22;;;;;;;;;;4983480;28;20049;-68
2023/05/26 08:57:15;;;;;;;5.18;2.45;;;;;;;;;;4979253;28;20050;-63
2023/05/26 08:59:44;;;;;;;4.80;2.22;;;;;;;;;;4977494;28;20061;-66
2023/05/26 09:02:13;;;;;;;7.72;2.17;;;;;;;;;;4980869;28;20116;-65
2023/05/26 09:04:41;;;;;;;7.57;2.50;;;;;;;;;;4983218;28;20050;-64
2023/05/26 09:07:10;;;;;;;4.00;2.17;;;;;;;;;;4978098;28;20373;-68
2023/05/26 09:09:43;;;;;;;5.28;2.05;;;;;;;;;;4978217;28;20062;-64
2023/05/26 09:12:12;;;;;;;10.32;2.58;;;;;;;;;;4981683;28;20046;-63
2023/05/26 09:14:41;;;;;;;6.00;2.17;;;;;;;;;;4979444;28;20096;-65
2023/05/26 09:17:14;;;;;;;6.32;2.78;;;;;;;;;;4976609;28;20058;-67
2023/05/26 09:19:42;;;;;;;6.97;2.63;;;;;;;;;;4976912;28;20059;-64
2023/05/26 09:22:11;;;;;;;8.88;2.65;;;;;;;;;;4980740;28;20133;-66
2023/05/26 09:24:46;;;;;;;4.70;2.40;;;;;;;;;;4979336;28;20042;-63
2023/05/26 09:27:18;;;;;;;7.55;2.85;;;;;;;;;;4961528;28;20184;-63
2023/05/26 09:29:50;;;;;;;6.07;2.47;;;;;;;;;;5003029;28;20073;-63
2023/05/26 09:32:19;;;;;;;4.68;2.25;;;;;;;;;;5002395;28;20129;-65
2023/05/26 09:34:51;;;;;;;4.65;2.55;;;;;;;;;;5002177;28;20038;-63
2023/05/26 09:37:28;;;;;;;6.10;1.80;;;;;;;;;;4975356;28;20050;-64
2023/05/26 09:40:08;;;;;;;3.63;2.22;;;;;;;;;;4978362;28;20047;-67
2023/05/26 09:42:38;;;;;;;6.88;1.70;;;;;;;;;;4977963;28;20142;-67
2023/05/26 09:45:06;;;;;;;5.00;2.53;;;;;;;;;;4975802;28;20050;-64
2023/05/26 09:47:35;;;;;;;4.57;1.70;;;;;;;;;;4981491;28;20055;-68
2023/05/26 09:50:05;;;;;;;5.68;2.33;;;;;;;;;;4986648;28;20086;-63
2023/05/26 09:52:34;;;;;;;7.22;2.00;;;;;;;;;;4986293;28;20097;-64
2023/05/26 09:55:04;;;;;;;3.38;1.75;;;;;;;;;;4991080;28;20053;-67
2023/05/26 09:57:34;;;;;;;4.22;2.50;;;;;;;;;;5002626;28;20153;-65
2023/05/26 10:00:06;;;;;;;6.20;2.38;;;;;;;;;;5008861;28;20062;-67
2023/05/26 10:02:35;;;;;;;7.15;2.30;;;;;;;;;;5007739;28;20104;-65
2023/05/26 10:05:05;;;;;;;3.60;1.75;;;;;;;;;;4998527;28;21197;-65
2023/05/26 10:07:34;;;;;;;4.35;2.25;;;;;;;;;;4985328;28;20053;-67
2023/05/26 10:10:04;;;;;;;3.30;1.85;;;;;;;;;;4983458;28;20570;-68
2023/05/26 10:12:34;;;;;;;5.28;2.15;;;;;;;;;;4975924;28;20057;-67
2023/05/26 10:15:03;;;;;;;4.15;2.22;;;;;;;;;;4987048;28;20241;-66
2023/05/26 10:17:31;;;;;;;4.95;2.20;;;;;;;;;;5009497;28;20058;-66
2023/05/26 10:20:00;;;;;;;6.22;1.83;;;;;;;;;;5003219;28;20476;-66
2023/05/26 10:22:30;;;;;;;5.35;2.45;;;;;;;;;;5009535;28;20057;-67
2023/05/26 10:25:00;;;;;;;4.32;2.05;;;;;;;;;;5008297;28;20045;-66
2023/05/26 10:27:33;;;;;;;3.55;1.80;;;;;;;;;;5010142;28;20058;-66
2023/05/26 10:30:08;;;;;;;3.20;1.88;;;;;;;;;;5008426;28;20045;-70
2023/05/26 10:32:44;;;;;;;3.17;1.77;;;;;;;;;;5003926;28;20068;-67
2023/05/26 10:35:21;;;;;;;3.03;1.73;;;;;;;;;;4998785;28;20046;-67
2023/05/26 10:37:50;;;;;;;4.53;2.00;;;;;;;;;;4979361;28;20065;-68
2023/05/26 10:40:32;;;;;;;4.22;1.95;;;;;;;;;;4987466;28;20055;-66
2023/05/26 10:43:02;;;;;;;9.10;2.58;;;;;;;;;;4984656;28;20050;-66
2023/05/26 10:45:32;;;;;;;4.82;2.53;;;;;;;;;;4992535;28;20069;-70
2023/05/26 10:48:06;;;;;;;6.10;2.20;;;;;;;;;;5005928;28;20041;-67
2023/05/26 10:50:54;;;;;;;6.00;2.33;;;;;;;;;;5007682;28;20045;-66
2023/05/26 10:53:23;;;;;;;2.65;1.52;;;;;;;;;;5006588;28;20053;-66
2023/05/26 10:55:53;;;;;;;4.05;1.92;;;;;;;;;;5004620;28;20096;-66
2023/05/26 10:58:34;;;;;;;3.78;1.70;;;;;;;;;;5001892;28;20173;-66
2023/05/26 11:01:03;;;;;;;5.75;2.40;;;;;;;;;;5005714;28;20135;-67
2023/05/26 11:03:32;;;;;;;8.05;2.10;;;;;;;;;;5002529;28;20056;-66
2023/05/26 11:06:01;;;;;;;5.05;1.85;;;;;;;;;;5001794;28;20501;-66
2023/05/26 11:08:34;;;;;;;4.45;1.92;;;;;;;;;;5003964;28;20054;-68
2023/05/26 11:11:03;;;;;;;3.75;2.00;;;;;;;;;;5000904;28;20049;-69
2023/05/26 11:13:46;;;;;;;4.20;1.92;;;;;;;;;;5001095;28;21060;-67
2023/05/26 11:16:19;;;;;;;4.03;1.40;;;;;;;;;;5001946;28;20046;-66
2023/05/26 11:18:48;;;;;;;3.85;2.13;;;;;;;;;;5003917;28;20104;-67
2023/05/26 11:21:17;;;;;;;2.63;1.50;;;;;;;;;;5011298;28;20141;-67
2023/05/26 11:23:46;;;;;;;6.55;2.45;;;;;;;;;;5006458;28;20133;-66
2023/05/26 11:26:15;;;;;;;2.97;1.75;;;;;;;;;;4997337;28;20082;-66
2023/05/26 11:28:46;;;;;;;3.28;1.90;;;;;;;;;;4988245;28;20050;-69
2023/05/26 11:31:14;;;;;;;3.05;1.55;;;;;;;;;;4986863;28;20096;-68
2023/05/26 11:33:44;;;;;;;4.22;1.83;;;;;;;;;;4985696;28;20286;-66
2023/05/26 11:36:14;;;;;;;4.32;2.10;;;;;;;;;;4989470;28;20093;-67
2023/05/26 11:38:42;;;;;;;5.13;2.15;;;;;;;;;;4987204;28;20057;-65
2023/05/26 11:41:12;;;;;;;5.25;3.22;;;;;;;;;;4988965;28;20046;-67
2023/05/26 11:43:41;;;;;;;8.57;1.77;;;;;;;;;;4988691;28;20048;-67
2023/05/26 11:46:12;;;;;;;5.35;2.03;;;;;;;;;;4999083;28;20125;-68
2023/05/26 11:48:41;;;;;;;5.53;1.75;;;;;;;;;;5010594;28;20045;-68
2023/05/26 11:51:10;;;;;;;2.38;1.50;;;;;;;;;;5009948;28;20123;-67
2023/05/26 11:53:39;;;;;;;3.97;1.63;;;;;;;;;;5005149;28;20054;-67
2023/05/26 11:56:09;;;;;;;3.10;1.90;;;;;;;;;;4994637;28;20050;-67
2023/05/26 11:58:38;;;;;;;5.25;2.08;;;;;;;;;;4977228;28;20427;-70
2023/05/26 12:01:07;;;;;;;5.05;1.42;;;;;;;;;;4978432;28;20042;-69
2023/05/26 12:03:40;;;;;;;5.88;1.88;;;;;;;;;;4980761;28;20074;-67
2023/05/26 12:06:10;;;;;;;3.60;2.05;;;;;;;;;;4978791;28;20179;-67
2023/05/26 12:08:49;;;;;;;5.50;2.17;;;;;;;;;;4980614;28;20120;-69
2023/05/26 12:11:18;;;;;;;5.60;1.95;;;;;;;;;;4979758;28;20046;-67
2023/05/26 12:13:47;;;;;;;5.47;1.77;;;;;;;;;;4979162;28;20046;-69
2023/05/26 12:16:26;;;;;;;3.35;1.70;;;;;;;;;;4982284;28;20046;-67
2023/05/26 12:18:57;;;;;;;4.65;1.50;;;;;;;;;;4978617;28;20203;-67
2023/05/26 12:21:26;;;;;;;1.70;1.20;;;;;;;;;;4976702;28;20343;-66
2023/05/26 12:23:55;;;;;;;3.90;1.80;;;;;;;;;;4977292;28;20108;-67
2023/05/26 12:26:25;;;;;;;3.53;1.67;;;;;;;;;;4980004;28;20135;-66
2023/05/26 12:29:06;;;;;;;6.13;2.10;;;;;;;;;;4979318;28;20172;-68
2023/05/26 12:31:37;;;;;;;4.03;1.85;;;;;;;;;;4980575;28;20050;-66
2023/05/26 12:34:07;;;;;;;2.72;1.45;;;;;;;;;;4978579;28;20503;-67
2023/05/26 12:36:36;;;;;;;4.10;1.70;;;;;;;;;;4981074;28;20085;-68
2023/05/26 12:39:04;;;;;;;2.30;1.48;;;;;;;;;;4979592;28;20101;-67
2023/05/26 12:41:33;;;;;;;4.32;1.60;;;;;;;;;;4978866;28;20050;-66
2023/05/26 12:44:02;;;;;;;4.78;1.65;;;;;;;;;;4977868;28;20145;-67
2023/05/26 12:46:30;;;;;;;4.30;1.30;;;;;;;;;;4979314;28;21119;-69
2023/05/26 12:48:59;;;;;;;4.50;1.70;;;;;;;;;;4977199;28;20479;-68
2023/05/26 12:51:29;;;;;;;4.85;1.75;;;;;;;;;;4979696;28;20125;-66
2023/05/26 12:53:58;;;;;;;4.53;1.48;;;;;;;;;;4982883;28;20061;-68
2023/05/26 12:56:27;;;;;;;2.83;1.85;;;;;;;;;;4987618;28;20128;-68
2023/05/26 12:58:57;;;;;;;6.90;1.73;;;;;;;;;;4982476;28;20812;-66
2023/05/26 13:01:41;;;;;;;4.57;1.70;;;;;;;;;;4987711;28;20042;-66
2023/05/26 13:04:10;;;;;;;4.43;1.73;;;;;;;;;;4985203;28;20149;-66
2023/05/26 13:06:40;;;;;;;4.32;1.67;;;;;;;;;;5000801;28;20608;-67
2023/05/26 13:09:09;;;;;;;2.45;1.70;;;;;;;;;;5005601;28;20068;-67
2023/05/26 13:11:38;;;;;;;3.50;2.13;;;;;;;;;;5007288;28;20060;-66
2023/05/26 13:14:07;;;;;;;4.65;2.30;;;;;;;;;;5005884;28;20498;-65
2023/05/26 13:16:36;;;;;;;3.88;1.85;;;;;;;;;;4994324;28;20565;-66
2023/05/26 13:19:05;;;;;;;4.20;1.55;;;;;;;;;;4986456;28;20148;-66
2023/05/26 13:21:35;;;;;;;2.08;1.23;;;;;;;;;;4985234;28;20054;-65
2023/05/26 13:24:06;;;;;;;1.48;1.33;;;;;;;;;;4983484;28;20391;-66
2023/05/26 13:26:34;;;;;;;1.58;1.23;;;;;;;;;;4983716;28;20086;-67
2023/05/26 13:29:03;;;;;;;2.47;1.48;;;;;;;;;;4991622;28;20468;-66
2023/05/26 13:31:31;;;;;;;2.08;1.20;;;;;;;;;;4986938;28;20057;-66
2023/05/26 13:34:00;;;;;;;2.42;1.55;;;;;;;;;;4984450;28;20046;-66
2023/05/26 13:36:28;;;;;;;3.30;1.67;;;;;;;;;;4984693;28;20101;-66
2023/05/26 13:38:56;;;;;;;6.35;1.73;;;;;;;;;;4986404;28;20133;-68
2023/05/26 13:41:27;;;;;;;2.65;1.60;;;;;;;;;;4985399;28;20108;-65
2023/05/26 13:43:55;;;;;;;2.20;1.33;;;;;;;;;;4988838;28;20055;-64
2023/05/26 13:46:23;;;;;;;3.25;1.40;;;;;;;;;;4998189;28;20644;-63
2023/05/26 13:48:52;;;;;;;2.72;1.50;;;;;;;;;;5003144;28;20053;-66
2023/05/26 13:51:20;;;;;;;4.40;2.05;;;;;;;;;;5005573;28;20490;-64
2023/05/26 13:53:49;;;;;;;5.45;1.77;;;;;;;;;;5010210;28;20097;-68
2023/05/26 13:56:18;;;;;;;2.83;1.60;;;;;;;;;;5007981;28;20048;-64
2023/05/26 13:58:56;;;;;;;3.25;1.75;;;;;;;;;;5002999;28;20073;-64
2023/05/26 14:01:27;;;;;;;3.53;1.80;;;;;;;;;;5001599;28;20049;-63
2023/05/26 14:04:05;;;;;;;3.88;1.60;;;;;;;;;;5003185;28;20061;-64
2023/05/26 14:06:35;;;;;;;6.72;1.92;;;;;;;;;;5008540;28;20077;-64
2023/05/26 14:09:05;;;;;;;2.83;1.55;;;;;;;;;;5002924;28;20128;-64
2023/05/26 14:11:33;;;;;;;4.85;1.80;;;;;;;;;;5003916;28;20552;-64
2023/05/26 14:14:03;;;;;;;3.67;1.70;;;;;;;;;;5006946;28;20121;-63
2023/05/26 14:16:31;;;;;;;2.28;1.67;;;;;;;;;;4985032;28;20629;-64
2023/05/26 14:19:00;;;;;;;6.65;1.58;;;;;;;;;;4982862;28;20053;-63
2023/05/26 14:21:32;;;;;;;3.42;1.50;;;;;;;;;;4980744;28;20108;-65
2023/05/26 14:24:21;;;;;;;3.78;1.77;;;;;;;;;;4983786;28;20054;-61
2023/05/26 14:26:50;;;;;;;6.93;1.77;;;;;;;;;;5000838;28;20080;-63
2023/05/26 14:29:19;;;;;;;4.22;1.70;;;;;;;;;;5000759;28;20494;-67
2023/05/26 14:31:49;;;;;;;2.55;1.77;;;;;;;;;;5004103;28;20053;-64
2023/05/26 14:34:18;;;;;;;3.05;1.73;;;;;;;;;;5002355;28;20073;-64
2023/05/26 14:36:47;;;;;;;4.28;1.75;;;;;;;;;;5004195;28;20111;-64
2023/05/26 14:39:15;;;;;;;3.45;1.38;;;;;;;;;;5005690;28;20131;-65
2023/05/26 14:41:44;;;;;;;2.47;1.80;;;;;;;;;;5004424;28;20486;-65
2023/05/26 14:44:12;;;;;;;3.30;1.42;;;;;;;;;;5004445;28;20137;-66
2023/05/26 14:46:42;;;;;;;2.67;1.45;;;;;;;;;;4989166;28;20054;-65
2023/05/26 14:49:11;;;;;;;2.92;1.80;;;;;;;;;;4984463;28;20046;-64
2023/05/26 14:51:39;;;;;;;3.67;1.35;;;;;;;;;;4983516;28;20061;-66
2023/05/26 14:54:08;;;;;;;3.00;1.63;;;;;;;;;;4986444;28;20046;-65
2023/05/26 14:56:36;;;;;;;3.17;1.63;;;;;;;;;;5001115;28;20045;-66
2023/05/26 14:59:05;;;;;;;1.95;1.25;;;;;;;;;;5010345;28;20132;-61
2023/05/26 15:01:33;;;;;;;3.72;1.20;;;;;;;;;;5004696;28;20824;-65